METAR Data
IDs: Format: Raw Decoded Include TAF

Data at: 2002 UTC 22 Sep 2020

METAR for:LFAQ (Albert/Picardie Arpt, --, FR)
Text:LFAQ 221930Z AUTO 30008KT CAVOK 17/07 Q1008
Temperature: 17.0°C ( 63°F)
Dewpoint: 7.0°C ( 45°F) [RH = 52%]
Pressure (altimeter):29.76 inches Hg (1008.0 mb)
Winds:from the WNW (300 degrees) at 9 MPH (8 knots; 4.1 m/s)
Visibility:6 or more sm (10+ km)
Ceiling:ceiling and visibility are OK
Clouds:unknown

TAF for:LFAQ (Albert/Picardie Arpt, --, FR) issued at 1400 UTC 22 Sep 2020
Text:TAF LFAQ 221400Z 2215/2224 26005KT CAVOK
Forecast period:1500 UTC 22 September 2020 to 0000 UTC 23 September 2020
Forecast type:FROM: standard forecast or significant change
Winds:from the W (260 degrees) at 6 MPH (5 knots; 2.6 m/s)
Visibility:6 or more sm (10+ km)
Clouds:missing
Weather:NSW (no significant weather)